sensor_id;sensor_type;location;lat;lon;timestamp;P1;durP1;ratioP1;P2;durP2;ratioP2
29730;SDS011;16639;51.488;0.152;2023-06-22T00:01:21;11.00;;;6.32;;
29730;SDS011;16639;51.488;0.152;2023-06-22T00:03:51;12.75;;;7.10;;
29730;SDS011;16639;51.488;0.152;2023-06-22T00:06:19;12.98;;;7.13;;
29730;SDS011;16639;51.488;0.152;2023-06-22T00:08:46;10.23;;;6.72;;
29730;SDS011;16639;51.488;0.152;2023-06-22T00:11:14;11.95;;;7.10;;
29730;SDS011;16639;51.488;0.152;2023-06-22T00:13:41;13.50;;;6.32;;
29730;SDS011;16639;51.488;0.152;2023-06-22T00:16:09;13.27;;;6.60;;
29730;SDS011;16639;51.488;0.152;2023-06-22T00:18:36;11.90;;;6.45;;
29730;SDS011;16639;51.488;0.152;2023-06-22T00:21:04;12.60;;;6.35;;
29730;SDS011;16639;51.488;0.152;2023-06-22T00:23:33;8.90;;;6.72;;
29730;SDS011;16639;51.488;0.152;2023-06-22T00:26:01;8.57;;;5.60;;
29730;SDS011;16639;51.488;0.152;2023-06-22T00:28:29;9.32;;;5.85;;
29730;SDS011;16639;51.488;0.152;2023-06-22T00:30:57;9.00;;;6.38;;
29730;SDS011;16639;51.488;0.152;2023-06-22T00:33:24;10.27;;;6.50;;
29730;SDS011;16639;51.488;0.152;2023-06-22T00:35:53;11.23;;;6.07;;
29730;SDS011;16639;51.488;0.152;2023-06-22T00:38:22;13.15;;;6.95;;
29730;SDS011;16639;51.488;0.152;2023-06-22T00:40:49;7.13;;;6.13;;
29730;SDS011;16639;51.488;0.152;2023-06-22T00:43:17;8.85;;;5.80;;
29730;SDS011;16639;51.488;0.152;2023-06-22T00:45:44;12.15;;;7.05;;
29730;SDS011;16639;51.488;0.152;2023-06-22T00:48:12;12.40;;;6.35;;
29730;SDS011;16639;51.488;0.152;2023-06-22T00:50:41;14.35;;;6.15;;
29730;SDS011;16639;51.488;0.152;2023-06-22T00:53:09;11.90;;;7.07;;
29730;SDS011;16639;51.488;0.152;2023-06-22T00:55:40;11.55;;;5.57;;
29730;SDS011;16639;51.488;0.152;2023-06-22T00:58:10;15.00;;;6.55;;
29730;SDS011;16639;51.488;0.152;2023-06-22T01:00:39;13.43;;;7.70;;
29730;SDS011;16639;51.488;0.152;2023-06-22T01:03:08;11.05;;;6.75;;
29730;SDS011;16639;51.488;0.152;2023-06-22T01:05:37;14.02;;;7.50;;
29730;SDS011;16639;51.488;0.152;2023-06-22T01:08:20;14.48;;;7.15;;
29730;SDS011;16639;51.488;0.152;2023-06-22T01:11:23;9.82;;;6.03;;
29730;SDS011;16639;51.488;0.152;2023-06-22T01:13:59;9.48;;;6.05;;
29730;SDS011;16639;51.488;0.152;2023-06-22T01:16:34;9.65;;;6.95;;
29730;SDS011;16639;51.488;0.152;2023-06-22T01:20:05;9.98;;;6.13;;
29730;SDS011;16639;51.488;0.152;2023-06-22T01:22:11;13.50;;;7.60;;
29730;SDS011;16639;51.488;0.152;2023-06-22T01:27:47;10.45;;;6.63;;
29730;SDS011;16639;51.488;0.152;2023-06-22T01:30:22;8.63;;;5.90;;
29730;SDS011;16639;51.488;0.152;2023-06-22T01:32:53;14.38;;;5.97;;
29730;SDS011;16639;51.488;0.152;2023-06-22T01:35:23;9.43;;;5.93;;
29730;SDS011;16639;51.488;0.152;2023-06-22T01:37:52;13.55;;;7.43;;
29730;SDS011;16639;51.488;0.152;2023-06-22T01:40:20;9.40;;;6.32;;
29730;SDS011;16639;51.488;0.152;2023-06-22T01:42:48;11.57;;;7.30;;
29730;SDS011;16639;51.488;0.152;2023-06-22T01:45:17;9.50;;;6.30;;
29730;SDS011;16639;51.488;0.152;2023-06-22T01:47:45;11.85;;;8.10;;
29730;SDS011;16639;51.488;0.152;2023-06-22T01:50:13;12.40;;;7.40;;
29730;SDS011;16639;51.488;0.152;2023-06-22T01:52:41;13.57;;;6.95;;
29730;SDS011;16639;51.488;0.152;2023-06-22T01:55:08;11.25;;;7.18;;
29730;SDS011;16639;51.488;0.152;2023-06-22T01:57:36;10.30;;;6.88;;
29730;SDS011;16639;51.488;0.152;2023-06-22T02:00:12;8.88;;;6.78;;
29730;SDS011;16639;51.488;0.152;2023-06-22T02:03:03;13.52;;;6.40;;
29730;SDS011;16639;51.488;0.152;2023-06-22T02:05:38;11.38;;;6.95;;
29730;SDS011;16639;51.488;0.152;2023-06-22T02:08:13;8.77;;;7.07;;
29730;SDS011;16639;51.488;0.152;2023-06-22T02:10:48;12.50;;;8.00;;
29730;SDS011;16639;51.488;0.152;2023-06-22T02:13:17;12.52;;;7.07;;
29730;SDS011;16639;51.488;0.152;2023-06-22T02:15:46;10.68;;;7.03;;
29730;SDS011;16639;51.488;0.152;2023-06-22T02:18:14;12.65;;;7.15;;
29730;SDS011;16639;51.488;0.152;2023-06-22T02:20:42;12.15;;;7.03;;
29730;SDS011;16639;51.488;0.152;2023-06-22T02:23:09;13.95;;;6.97;;
29730;SDS011;16639;51.488;0.152;2023-06-22T02:25:37;13.00;;;8.25;;
29730;SDS011;16639;51.488;0.152;2023-06-22T02:28:05;9.38;;;7.28;;
29730;SDS011;16639;51.488;0.152;2023-06-22T02:30:34;14.63;;;7.88;;
29730;SDS011;16639;51.488;0.152;2023-06-22T02:33:01;17.88;;;7.43;;
29730;SDS011;16639;51.488;0.152;2023-06-22T02:35:29;11.77;;;7.72;;
29730;SDS011;16639;51.488;0.152;2023-06-22T02:37:59;12.70;;;7.78;;
29730;SDS011;16639;51.488;0.152;2023-06-22T02:40:28;10.75;;;7.57;;
29730;SDS011;16639;51.488;0.152;2023-06-22T02:42:57;12.85;;;7.68;;
29730;SDS011;16639;51.488;0.152;2023-06-22T02:45:29;14.25;;;7.45;;
29730;SDS011;16639;51.488;0.152;2023-06-22T02:47:56;10.48;;;7.63;;
29730;SDS011;16639;51.488;0.152;2023-06-22T02:50:24;10.95;;;7.63;;
29730;SDS011;16639;51.488;0.152;2023-06-22T02:52:52;11.55;;;7.93;;
29730;SDS011;16639;51.488;0.152;2023-06-22T02:55:19;13.50;;;8.32;;
29730;SDS011;16639;51.488;0.152;2023-06-22T02:57:47;13.00;;;7.78;;
29730;SDS011;16639;51.488;0.152;2023-06-22T03:00:14;15.88;;;7.80;;
29730;SDS011;16639;51.488;0.152;2023-06-22T03:02:45;12.65;;;8.27;;
29730;SDS011;16639;51.488;0.152;2023-06-22T03:05:14;13.65;;;8.32;;
29730;SDS011;16639;51.488;0.152;2023-06-22T03:07:45;12.88;;;7.78;;
29730;SDS011;16639;51.488;0.152;2023-06-22T03:10:13;11.95;;;7.78;;
29730;SDS011;16639;51.488;0.152;2023-06-22T03:12:42;11.07;;;7.13;;
29730;SDS011;16639;51.488;0.152;2023-06-22T03:15:11;15.30;;;7.68;;
29730;SDS011;16639;51.488;0.152;2023-06-22T03:17:40;12.23;;;7.20;;
29730;SDS011;16639;51.488;0.152;2023-06-22T03:20:08;13.70;;;7.95;;
29730;SDS011;16639;51.488;0.152;2023-06-22T03:22:41;14.40;;;9.18;;
29730;SDS011;16639;51.488;0.152;2023-06-22T03:25:09;14.30;;;8.35;;
29730;SDS011;16639;51.488;0.152;2023-06-22T03:27:40;14.07;;;9.43;;
29730;SDS011;16639;51.488;0.152;2023-06-22T03:30:10;11.73;;;7.53;;
29730;SDS011;16639;51.488;0.152;2023-06-22T03:32:38;11.30;;;8.10;;
29730;SDS011;16639;51.488;0.152;2023-06-22T03:35:06;12.55;;;8.23;;
29730;SDS011;16639;51.488;0.152;2023-06-22T03:37:34;12.70;;;7.88;;
29730;SDS011;16639;51.488;0.152;2023-06-22T03:40:01;16.85;;;8.73;;
29730;SDS011;16639;51.488;0.152;2023-06-22T03:42:33;13.68;;;8.00;;
29730;SDS011;16639;51.488;0.152;2023-06-22T03:45:02;16.48;;;8.80;;
29730;SDS011;16639;51.488;0.152;2023-06-22T03:47:31;20.85;;;8.95;;
29730;SDS011;16639;51.488;0.152;2023-06-22T03:50:00;17.48;;;9.07;;
29730;SDS011;16639;51.488;0.152;2023-06-22T03:52:30;12.30;;;8.23;;
29730;SDS011;16639;51.488;0.152;2023-06-22T03:54:58;11.68;;;8.07;;
29730;SDS011;16639;51.488;0.152;2023-06-22T03:57:26;14.80;;;8.50;;
29730;SDS011;16639;51.488;0.152;2023-06-22T03:59:56;12.48;;;8.18;;
29730;SDS011;16639;51.488;0.152;2023-06-22T04:02:24;14.50;;;8.20;;
29730;SDS011;16639;51.488;0.152;2023-06-22T04:04:52;20.42;;;8.43;;
29730;SDS011;16639;51.488;0.152;2023-06-22T04:07:20;15.15;;;7.85;;
29730;SDS011;16639;51.488;0.152;2023-06-22T04:09:47;13.48;;;8.68;;
29730;SDS011;16639;51.488;0.152;2023-06-22T04:12:15;17.08;;;9.40;;
29730;SDS011;16639;51.488;0.152;2023-06-22T04:14:42;12.80;;;8.73;;
29730;SDS011;16639;51.488;0.152;2023-06-22T04:17:10;16.75;;;9.07;;
29730;SDS011;16639;51.488;0.152;2023-06-22T04:19:42;28.88;;;10.45;;
29730;SDS011;16639;51.488;0.152;2023-06-22T04:22:09;14.63;;;8.63;;
29730;SDS011;16639;51.488;0.152;2023-06-22T04:24:37;13.10;;;8.68;;
29730;SDS011;16639;51.488;0.152;2023-06-22T04:27:04;20.40;;;8.32;;
29730;SDS011;16639;51.488;0.152;2023-06-22T04:29:32;16.05;;;9.48;;
29730;SDS011;16639;51.488;0.152;2023-06-22T04:31:59;13.60;;;8.73;;
29730;SDS011;16639;51.488;0.152;2023-06-22T04:34:30;17.38;;;8.77;;
29730;SDS011;16639;51.488;0.152;2023-06-22T04:36:57;14.40;;;8.82;;
29730;SDS011;16639;51.488;0.152;2023-06-22T04:39:25;12.25;;;8.40;;
29730;SDS011;16639;51.488;0.152;2023-06-22T04:41:53;15.50;;;8.32;;
29730;SDS011;16639;51.488;0.152;2023-06-22T04:44:27;14.35;;;8.52;;
29730;SDS011;16639;51.488;0.152;2023-06-22T04:46:58;11.88;;;8.23;;
29730;SDS011;16639;51.488;0.152;2023-06-22T04:49:30;16.50;;;8.80;;
29730;SDS011;16639;51.488;0.152;2023-06-22T04:52:04;16.38;;;9.27;;
29730;SDS011;16639;51.488;0.152;2023-06-22T04:54:33;14.07;;;8.88;;
29730;SDS011;16639;51.488;0.152;2023-06-22T04:57:02;11.35;;;8.70;;
29730;SDS011;16639;51.488;0.152;2023-06-22T04:59:32;13.20;;;9.02;;
29730;SDS011;16639;51.488;0.152;2023-06-22T05:02:00;16.00;;;9.93;;
29730;SDS011;16639;51.488;0.152;2023-06-22T05:04:29;15.27;;;9.82;;
29730;SDS011;16639;51.488;0.152;2023-06-22T05:07:03;17.60;;;10.32;;
29730;SDS011;16639;51.488;0.152;2023-06-22T05:09:31;16.17;;;8.68;;
29730;SDS011;16639;51.488;0.152;2023-06-22T05:12:01;15.90;;;9.13;;
29730;SDS011;16639;51.488;0.152;2023-06-22T05:14:34;13.30;;;8.85;;
29730;SDS011;16639;51.488;0.152;2023-06-22T05:17:02;18.90;;;9.15;;
29730;SDS011;16639;51.488;0.152;2023-06-22T05:19:31;16.08;;;9.20;;
29730;SDS011;16639;51.488;0.152;2023-06-22T05:22:01;18.60;;;10.20;;
29730;SDS011;16639;51.488;0.152;2023-06-22T05:24:28;14.98;;;9.32;;
29730;SDS011;16639;51.488;0.152;2023-06-22T05:26:56;11.38;;;8.98;;
29730;SDS011;16639;51.488;0.152;2023-06-22T05:29:23;13.65;;;9.48;;
29730;SDS011;16639;51.488;0.152;2023-06-22T05:31:51;14.55;;;10.02;;
29730;SDS011;16639;51.488;0.152;2023-06-22T05:34:18;16.13;;;9.32;;
29730;SDS011;16639;51.488;0.152;2023-06-22T05:36:46;12.82;;;8.55;;
29730;SDS011;16639;51.488;0.152;2023-06-22T05:39:14;18.98;;;9.50;;
29730;SDS011;16639;51.488;0.152;2023-06-22T05:41:42;14.15;;;8.93;;
29730;SDS011;16639;51.488;0.152;2023-06-22T05:44:12;12.13;;;8.65;;
29730;SDS011;16639;51.488;0.152;2023-06-22T05:46:40;16.23;;;9.90;;
29730;SDS011;16639;51.488;0.152;2023-06-22T05:49:13;14.95;;;9.73;;
29730;SDS011;16639;51.488;0.152;2023-06-22T05:51:41;11.38;;;8.70;;
29730;SDS011;16639;51.488;0.152;2023-06-22T05:54:09;15.07;;;9.00;;
29730;SDS011;16639;51.488;0.152;2023-06-22T05:56:37;17.67;;;11.13;;
29730;SDS011;16639;51.488;0.152;2023-06-22T05:59:04;16.75;;;10.55;;
29730;SDS011;16639;51.488;0.152;2023-06-22T06:01:32;18.05;;;10.13;;
29730;SDS011;16639;51.488;0.152;2023-06-22T06:04:03;23.02;;;11.55;;
29730;SDS011;16639;51.488;0.152;2023-06-22T06:06:31;14.40;;;8.73;;
29730;SDS011;16639;51.488;0.152;2023-06-22T06:08:58;15.55;;;9.50;;
29730;SDS011;16639;51.488;0.152;2023-06-22T06:11:26;17.70;;;9.80;;
29730;SDS011;16639;51.488;0.152;2023-06-22T06:13:54;12.90;;;8.35;;
29730;SDS011;16639;51.488;0.152;2023-06-22T06:16:22;13.70;;;9.82;;
29730;SDS011;16639;51.488;0.152;2023-06-22T06:18:50;22.08;;;11.13;;
29730;SDS011;16639;51.488;0.152;2023-06-22T06:21:17;14.07;;;9.27;;
29730;SDS011;16639;51.488;0.152;2023-06-22T06:23:45;15.73;;;8.32;;
29730;SDS011;16639;51.488;0.152;2023-06-22T06:26:14;19.92;;;9.65;;
29730;SDS011;16639;51.488;0.152;2023-06-22T06:28:43;18.58;;;10.63;;
29730;SDS011;16639;51.488;0.152;2023-06-22T06:31:11;14.63;;;9.35;;
29730;SDS011;16639;51.488;0.152;2023-06-22T06:33:39;23.92;;;11.55;;
29730;SDS011;16639;51.488;0.152;2023-06-22T06:36:06;20.33;;;9.32;;
29730;SDS011;16639;51.488;0.152;2023-06-22T06:38:35;15.68;;;9.38;;
29730;SDS011;16639;51.488;0.152;2023-06-22T06:41:03;16.35;;;9.95;;
29730;SDS011;16639;51.488;0.152;2023-06-22T06:43:30;14.52;;;9.18;;
29730;SDS011;16639;51.488;0.152;2023-06-22T06:45:58;20.98;;;11.63;;
29730;SDS011;16639;51.488;0.152;2023-06-22T06:48:25;16.77;;;9.23;;
29730;SDS011;16639;51.488;0.152;2023-06-22T06:50:53;14.95;;;9.27;;
29730;SDS011;16639;51.488;0.152;2023-06-22T06:53:20;18.65;;;10.52;;
29730;SDS011;16639;51.488;0.152;2023-06-22T06:55:48;21.58;;;10.95;;
29730;SDS011;16639;51.488;0.152;2023-06-22T06:58:15;18.23;;;11.23;;
29730;SDS011;16639;51.488;0.152;2023-06-22T07:00:43;20.08;;;12.27;;
29730;SDS011;16639;51.488;0.152;2023-06-22T07:03:10;15.00;;;9.25;;
29730;SDS011;16639;51.488;0.152;2023-06-22T07:05:38;21.10;;;11.07;;
29730;SDS011;16639;51.488;0.152;2023-06-22T07:10:42;28.30;;;13.07;;
29730;SDS011;16639;51.488;0.152;2023-06-22T07:13:09;21.60;;;12.70;;
29730;SDS011;16639;51.488;0.152;2023-06-22T07:15:37;14.63;;;10.52;;
29730;SDS011;16639;51.488;0.152;2023-06-22T07:18:04;22.15;;;10.75;;
29730;SDS011;16639;51.488;0.152;2023-06-22T07:20:32;17.33;;;11.07;;
29730;SDS011;16639;51.488;0.152;2023-06-22T07:23:00;14.00;;;9.57;;
29730;SDS011;16639;51.488;0.152;2023-06-22T07:25:27;26.38;;;13.30;;
29730;SDS011;16639;51.488;0.152;2023-06-22T07:27:58;26.55;;;11.65;;
29730;SDS011;16639;51.488;0.152;2023-06-22T07:30:29;19.70;;;11.82;;
29730;SDS011;16639;51.488;0.152;2023-06-22T07:32:58;19.58;;;11.02;;
29730;SDS011;16639;51.488;0.152;2023-06-22T07:35:30;23.42;;;11.48;;
29730;SDS011;16639;51.488;0.152;2023-06-22T07:37:58;16.48;;;11.13;;
29730;SDS011;16639;51.488;0.152;2023-06-22T07:40:31;23.55;;;11.65;;
29730;SDS011;16639;51.488;0.152;2023-06-22T07:42:58;20.98;;;12.00;;
29730;SDS011;16639;51.488;0.152;2023-06-22T07:45:26;21.92;;;11.63;;
29730;SDS011;16639;51.488;0.152;2023-06-22T07:47:53;29.92;;;12.80;;
29730;SDS011;16639;51.488;0.152;2023-06-22T07:50:21;19.67;;;10.68;;
29730;SDS011;16639;51.488;0.152;2023-06-22T07:52:48;20.58;;;10.73;;
29730;SDS011;16639;51.488;0.152;2023-06-22T07:55:16;20.88;;;11.18;;
29730;SDS011;16639;51.488;0.152;2023-06-22T07:57:44;13.48;;;8.63;;
29730;SDS011;16639;51.488;0.152;2023-06-22T08:00:14;19.45;;;10.57;;
29730;SDS011;16639;51.488;0.152;2023-06-22T08:02:44;16.40;;;9.75;;
29730;SDS011;16639;51.488;0.152;2023-06-22T08:05:13;15.13;;;9.23;;
29730;SDS011;16639;51.488;0.152;2023-06-22T08:08:00;16.08;;;11.15;;
29730;SDS011;16639;51.488;0.152;2023-06-22T08:10:27;21.77;;;10.30;;
29730;SDS011;16639;51.488;0.152;2023-06-22T08:12:55;19.20;;;10.68;;
29730;SDS011;16639;51.488;0.152;2023-06-22T08:15:22;14.63;;;9.18;;
29730;SDS011;16639;51.488;0.152;2023-06-22T08:17:50;16.73;;;10.48;;
29730;SDS011;16639;51.488;0.152;2023-06-22T08:20:19;16.02;;;10.15;;
29730;SDS011;16639;51.488;0.152;2023-06-22T08:22:47;19.75;;;10.23;;
29730;SDS011;16639;51.488;0.152;2023-06-22T08:25:14;15.10;;;9.15;;
29730;SDS011;16639;51.488;0.152;2023-06-22T08:27:44;14.20;;;8.20;;
29730;SDS011;16639;51.488;0.152;2023-06-22T08:30:15;14.45;;;7.97;;
29730;SDS011;16639;51.488;0.152;2023-06-22T08:32:44;15.50;;;9.65;;
29730;SDS011;16639;51.488;0.152;2023-06-22T08:35:12;15.75;;;9.63;;
29730;SDS011;16639;51.488;0.152;2023-06-22T08:37:39;13.15;;;8.02;;
29730;SDS011;16639;51.488;0.152;2023-06-22T08:40:08;16.35;;;9.60;;
29730;SDS011;16639;51.488;0.152;2023-06-22T08:42:36;16.00;;;8.75;;
29730;SDS011;16639;51.488;0.152;2023-06-22T08:45:05;10.73;;;7.22;;
29730;SDS011;16639;51.488;0.152;2023-06-22T08:47:33;16.40;;;8.10;;
29730;SDS011;16639;51.488;0.152;2023-06-22T08:50:00;12.18;;;7.35;;
29730;SDS011;16639;51.488;0.152;2023-06-22T08:52:32;17.00;;;8.90;;
29730;SDS011;16639;51.488;0.152;2023-06-22T08:54:59;16.23;;;7.97;;
29730;SDS011;16639;51.488;0.152;2023-06-22T08:57:27;14.30;;;8.82;;
29730;SDS011;16639;51.488;0.152;2023-06-22T08:59:54;15.10;;;8.23;;
29730;SDS011;16639;51.488;0.152;2023-06-22T09:02:25;12.85;;;7.15;;
29730;SDS011;16639;51.488;0.152;2023-06-22T09:04:58;15.32;;;7.90;;
29730;SDS011;16639;51.488;0.152;2023-06-22T09:07:26;13.43;;;8.38;;
29730;SDS011;16639;51.488;0.152;2023-06-22T09:09:54;13.05;;;7.65;;
29730;SDS011;16639;51.488;0.152;2023-06-22T09:12:22;12.88;;;8.38;;
29730;SDS011;16639;51.488;0.152;2023-06-22T09:14:52;12.32;;;7.03;;
29730;SDS011;16639;51.488;0.152;2023-06-22T09:17:21;10.55;;;6.80;;
29730;SDS011;16639;51.488;0.152;2023-06-22T09:19:49;8.88;;;6.80;;
29730;SDS011;16639;51.488;0.152;2023-06-22T09:22:16;12.65;;;7.30;;
29730;SDS011;16639;51.488;0.152;2023-06-22T09:24:44;14.23;;;8.68;;
29730;SDS011;16639;51.488;0.152;2023-06-22T09:27:11;9.10;;;6.20;;
29730;SDS011;16639;51.488;0.152;2023-06-22T09:29:38;12.60;;;7.60;;
29730;SDS011;16639;51.488;0.152;2023-06-22T09:32:06;9.65;;;6.70;;
29730;SDS011;16639;51.488;0.152;2023-06-22T09:34:34;17.08;;;8.15;;
29730;SDS011;16639;51.488;0.152;2023-06-22T09:37:01;13.90;;;7.00;;
29730;SDS011;16639;51.488;0.152;2023-06-22T09:39:28;10.32;;;6.55;;
29730;SDS011;16639;51.488;0.152;2023-06-22T09:41:57;11.70;;;7.00;;
29730;SDS011;16639;51.488;0.152;2023-06-22T09:44:26;11.38;;;6.72;;
29730;SDS011;16639;51.488;0.152;2023-06-22T09:46:54;14.10;;;7.60;;
29730;SDS011;16639;51.488;0.152;2023-06-22T09:49:21;11.13;;;6.60;;
29730;SDS011;16639;51.488;0.152;2023-06-22T09:52:08;8.68;;;5.85;;
29730;SDS011;16639;51.488;0.152;2023-06-22T09:54:38;12.00;;;6.07;;
29730;SDS011;16639;51.488;0.152;2023-06-22T09:57:05;10.10;;;6.55;;
29730;SDS011;16639;51.488;0.152;2023-06-22T09:59:33;9.38;;;6.18;;
29730;SDS011;16639;51.488;0.152;2023-06-22T10:02:00;17.42;;;7.63;;
29730;SDS011;16639;51.488;0.152;2023-06-22T10:04:28;11.05;;;7.25;;
29730;SDS011;16639;51.488;0.152;2023-06-22T10:06:56;9.73;;;7.00;;
29730;SDS011;16639;51.488;0.152;2023-06-22T10:09:23;11.77;;;6.05;;
29730;SDS011;16639;51.488;0.152;2023-06-22T10:11:51;8.52;;;6.85;;
29730;SDS011;16639;51.488;0.152;2023-06-22T10:14:18;11.32;;;6.15;;
29730;SDS011;16639;51.488;0.152;2023-06-22T10:16:46;7.38;;;5.75;;
29730;SDS011;16639;51.488;0.152;2023-06-22T10:19:15;10.00;;;6.28;;
29730;SDS011;16639;51.488;0.152;2023-06-22T10:21:42;7.32;;;4.93;;
29730;SDS011;16639;51.488;0.152;2023-06-22T10:24:10;9.32;;;5.10;;
29730;SDS011;16639;51.488;0.152;2023-06-22T10:26:37;7.30;;;5.20;;
29730;SDS011;16639;51.488;0.152;2023-06-22T10:29:05;8.45;;;5.78;;
29730;SDS011;16639;51.488;0.152;2023-06-22T10:31:42;8.10;;;6.03;;
29730;SDS011;16639;51.488;0.152;2023-06-22T10:34:10;7.75;;;4.82;;
29730;SDS011;16639;51.488;0.152;2023-06-22T10:36:38;8.30;;;6.05;;
29730;SDS011;16639;51.488;0.152;2023-06-22T10:39:05;10.38;;;4.97;;
29730;SDS011;16639;51.488;0.152;2023-06-22T10:41:33;9.45;;;4.82;;
29730;SDS011;16639;51.488;0.152;2023-06-22T10:44:02;7.78;;;5.50;;
29730;SDS011;16639;51.488;0.152;2023-06-22T10:46:29;8.82;;;5.47;;
29730;SDS011;16639;51.488;0.152;2023-06-22T10:48:56;6.28;;;5.07;;
29730;SDS011;16639;51.488;0.152;2023-06-22T10:51:25;10.63;;;5.32;;
29730;SDS011;16639;51.488;0.152;2023-06-22T10:53:54;8.60;;;5.13;;
29730;SDS011;16639;51.488;0.152;2023-06-22T10:56:22;7.57;;;5.07;;
29730;SDS011;16639;51.488;0.152;2023-06-22T10:58:49;7.95;;;5.07;;
29730;SDS011;16639;51.488;0.152;2023-06-22T11:01:17;8.77;;;5.30;;
29730;SDS011;16639;51.488;0.152;2023-06-22T11:04:01;11.52;;;5.10;;
29730;SDS011;16639;51.488;0.152;2023-06-22T11:06:28;8.07;;;4.90;;
29730;SDS011;16639;51.488;0.152;2023-06-22T11:08:56;5.78;;;4.57;;
29730;SDS011;16639;51.488;0.152;2023-06-22T11:11:37;5.97;;;4.90;;
29730;SDS011;16639;51.488;0.152;2023-06-22T11:14:05;5.72;;;4.85;;
29730;SDS011;16639;51.488;0.152;2023-06-22T11:16:32;9.43;;;5.32;;
29730;SDS011;16639;51.488;0.152;2023-06-22T11:19:01;7.75;;;5.03;;
29730;SDS011;16639;51.488;0.152;2023-06-22T11:21:30;6.93;;;4.75;;
29730;SDS011;16639;51.488;0.152;2023-06-22T11:23:58;9.75;;;4.47;;
29730;SDS011;16639;51.488;0.152;2023-06-22T11:26:26;9.18;;;4.82;;
29730;SDS011;16639;51.488;0.152;2023-06-22T11:28:54;8.00;;;4.72;;
29730;SDS011;16639;51.488;0.152;2023-06-22T11:31:21;7.68;;;4.80;;
29730;SDS011;16639;51.488;0.152;2023-06-22T11:33:52;9.32;;;4.82;;
29730;SDS011;16639;51.488;0.152;2023-06-22T11:36:20;7.78;;;4.22;;
29730;SDS011;16639;51.488;0.152;2023-06-22T11:38:49;10.18;;;4.43;;
29730;SDS011;16639;51.488;0.152;2023-06-22T11:41:16;7.85;;;4.75;;
29730;SDS011;16639;51.488;0.152;2023-06-22T11:43:44;8.00;;;4.20;;
29730;SDS011;16639;51.488;0.152;2023-06-22T11:46:11;6.90;;;3.92;;
29730;SDS011;16639;51.488;0.152;2023-06-22T11:48:39;8.55;;;4.57;;
29730;SDS011;16639;51.488;0.152;2023-06-22T11:51:06;7.00;;;3.95;;
29730;SDS011;16639;51.488;0.152;2023-06-22T11:53:35;6.10;;;4.22;;
29730;SDS011;16639;51.488;0.152;2023-06-22T11:56:02;6.38;;;3.97;;
29730;SDS011;16639;51.488;0.152;2023-06-22T11:58:29;4.82;;;3.40;;
29730;SDS011;16639;51.488;0.152;2023-06-22T12:00:57;4.82;;;3.78;;
29730;SDS011;16639;51.488;0.152;2023-06-22T12:03:24;6.80;;;4.07;;
29730;SDS011;16639;51.488;0.152;2023-06-22T12:05:52;5.90;;;4.00;;
29730;SDS011;16639;51.488;0.152;2023-06-22T12:08:20;6.32;;;3.40;;
29730;SDS011;16639;51.488;0.152;2023-06-22T12:10:49;6.05;;;4.07;;
29730;SDS011;16639;51.488;0.152;2023-06-22T12:13:17;4.15;;;3.50;;
29730;SDS011;16639;51.488;0.152;2023-06-22T12:15:44;5.07;;;2.97;;
29730;SDS011;16639;51.488;0.152;2023-06-22T12:18:12;9.63;;;4.15;;
29730;SDS011;16639;51.488;0.152;2023-06-22T12:20:41;8.57;;;4.10;;
29730;SDS011;16639;51.488;0.152;2023-06-22T12:23:09;5.43;;;3.42;;
29730;SDS011;16639;51.488;0.152;2023-06-22T12:25:36;9.82;;;3.97;;
29730;SDS011;16639;51.488;0.152;2023-06-22T12:28:04;6.93;;;3.60;;
29730;SDS011;16639;51.488;0.152;2023-06-22T12:30:32;9.18;;;3.45;;
29730;SDS011;16639;51.488;0.152;2023-06-22T12:33:00;5.72;;;3.17;;
29730;SDS011;16639;51.488;0.152;2023-06-22T12:35:28;8.05;;;3.58;;
29730;SDS011;16639;51.488;0.152;2023-06-22T12:37:55;5.90;;;3.72;;
29730;SDS011;16639;51.488;0.152;2023-06-22T12:40:22;7.43;;;3.80;;
29730;SDS011;16639;51.488;0.152;2023-06-22T12:42:50;6.00;;;3.10;;
29730;SDS011;16639;51.488;0.152;2023-06-22T12:45:18;5.72;;;3.72;;
29730;SDS011;16639;51.488;0.152;2023-06-22T12:47:47;10.30;;;4.22;;
29730;SDS011;16639;51.488;0.152;2023-06-22T12:50:17;12.70;;;3.92;;
29730;SDS011;16639;51.488;0.152;2023-06-22T12:52:44;7.28;;;3.78;;
29730;SDS011;16639;51.488;0.152;2023-06-22T12:55:12;8.00;;;3.88;;
29730;SDS011;16639;51.488;0.152;2023-06-22T12:57:39;5.68;;;3.63;;
29730;SDS011;16639;51.488;0.152;2023-06-22T13:00:07;5.78;;;3.90;;
29730;SDS011;16639;51.488;0.152;2023-06-22T13:02:36;5.18;;;3.42;;
29730;SDS011;16639;51.488;0.152;2023-06-22T13:05:04;5.90;;;3.35;;
29730;SDS011;16639;51.488;0.152;2023-06-22T13:07:32;5.90;;;3.85;;
29730;SDS011;16639;51.488;0.152;2023-06-22T13:10:00;3.97;;;3.30;;
29730;SDS011;16639;51.488;0.152;2023-06-22T13:12:28;6.50;;;3.22;;
29730;SDS011;16639;51.488;0.152;2023-06-22T13:14:56;6.95;;;3.20;;
29730;SDS011;16639;51.488;0.152;2023-06-22T13:17:24;4.10;;;2.80;;
29730;SDS011;16639;51.488;0.152;2023-06-22T13:19:51;5.97;;;3.20;;
29730;SDS011;16639;51.488;0.152;2023-06-22T13:22:29;4.93;;;2.90;;
29730;SDS011;16639;51.488;0.152;2023-06-22T13:24:59;4.05;;;3.22;;
29730;SDS011;16639;51.488;0.152;2023-06-22T13:27:27;4.28;;;3.17;;
29730;SDS011;16639;51.488;0.152;2023-06-22T13:29:54;6.97;;;2.97;;
29730;SDS011;16639;51.488;0.152;2023-06-22T13:32:22;6.88;;;3.15;;
29730;SDS011;16639;51.488;0.152;2023-06-22T13:34:50;3.58;;;2.85;;
29730;SDS011;16639;51.488;0.152;2023-06-22T13:37:19;3.95;;;2.90;;
29730;SDS011;16639;51.488;0.152;2023-06-22T13:39:46;3.92;;;3.08;;
29730;SDS011;16639;51.488;0.152;2023-06-22T13:42:14;10.68;;;2.92;;
29730;SDS011;16639;51.488;0.152;2023-06-22T13:44:41;4.30;;;3.03;;
29730;SDS011;16639;51.488;0.152;2023-06-22T13:47:09;4.10;;;2.80;;
29730;SDS011;16639;51.488;0.152;2023-06-22T13:49:37;6.05;;;3.00;;
29730;SDS011;16639;51.488;0.152;2023-06-22T13:52:19;5.55;;;2.75;;
29730;SDS011;16639;51.488;0.152;2023-06-22T13:54:46;3.58;;;2.60;;
29730;SDS011;16639;51.488;0.152;2023-06-22T13:57:13;4.18;;;2.72;;
29730;SDS011;16639;51.488;0.152;2023-06-22T13:59:41;4.07;;;2.72;;
29730;SDS011;16639;51.488;0.152;2023-06-22T14:02:08;8.27;;;3.00;;
29730;SDS011;16639;51.488;0.152;2023-06-22T14:04:36;4.30;;;2.67;;
29730;SDS011;16639;51.488;0.152;2023-06-22T14:07:03;7.25;;;2.65;;
29730;SDS011;16639;51.488;0.152;2023-06-22T14:09:31;4.97;;;2.92;;
29730;SDS011;16639;51.488;0.152;2023-06-22T14:12:02;5.38;;;2.78;;
29730;SDS011;16639;51.488;0.152;2023-06-22T14:14:32;5.25;;;2.90;;
29730;SDS011;16639;51.488;0.152;2023-06-22T14:17:00;5.82;;;3.30;;
29730;SDS011;16639;51.488;0.152;2023-06-22T14:19:27;4.65;;;2.88;;
29730;SDS011;16639;51.488;0.152;2023-06-22T14:21:55;7.00;;;3.22;;
29730;SDS011;16639;51.488;0.152;2023-06-22T14:24:23;5.60;;;2.97;;
29730;SDS011;16639;51.488;0.152;2023-06-22T14:26:54;7.07;;;2.63;;
29730;SDS011;16639;51.488;0.152;2023-06-22T14:29:22;7.30;;;2.75;;
29730;SDS011;16639;51.488;0.152;2023-06-22T14:31:49;6.10;;;2.88;;
29730;SDS011;16639;51.488;0.152;2023-06-22T14:34:17;5.60;;;3.70;;
29730;SDS011;16639;51.488;0.152;2023-06-22T14:36:44;6.03;;;3.17;;
29730;SDS011;16639;51.488;0.152;2023-06-22T14:39:12;6.22;;;3.10;;
29730;SDS011;16639;51.488;0.152;2023-06-22T14:41:39;3.58;;;2.80;;
29730;SDS011;16639;51.488;0.152;2023-06-22T14:44:06;4.15;;;3.00;;
29730;SDS011;16639;51.488;0.152;2023-06-22T14:46:34;5.60;;;2.60;;
29730;SDS011;16639;51.488;0.152;2023-06-22T14:49:02;6.20;;;3.45;;
29730;SDS011;16639;51.488;0.152;2023-06-22T14:51:29;4.93;;;2.90;;
29730;SDS011;16639;51.488;0.152;2023-06-22T14:53:57;9.95;;;3.60;;